Time;durP1;ratioP1;P1;durP2;ratioP2;P2;SDS_P1;SDS_P2;PMS_P1;PMS_P2;Temp;Humidity;BMP_temperature;BMP_pressure;BME280_temperature;BME280_humidity;BME280_pressure;Samples;Min_cycle;Max_cycle;Signal;HPM_P1;HPM_P2
2021/05/25 00:02:14;;;;;;;1.60;0.93;;;;;;;;;;5063274;28;20214;-70
2021/05/25 00:04:39;;;;;;;1.20;0.93;;;;;;;;;;5067657;28;20216;-70
2021/05/25 00:07:04;;;;;;;2.30;1.03;;;;;;;;;;5066348;28;20210;-70
2021/05/25 00:09:29;;;;;;;0.90;0.80;;;;;;;;;;5068342;28;20177;-70
2021/05/25 00:11:54;;;;;;;0.87;0.80;;;;;;;;;;5068184;28;20682;-70
2021/05/25 00:14:21;;;;;;;1.70;0.87;;;;;;;;;;5063529;28;20208;-70
2021/05/25 00:16:47;;;;;;;1.20;1.10;;;;;;;;;;5062353;28;20173;-70
2021/05/25 00:19:12;;;;;;;0.90;0.67;;;;;;;;;;5059156;28;20640;-70
2021/05/25 00:21:37;;;;;;;1.33;0.80;;;;;;;;;;5064548;28;20217;-71
2021/05/25 00:24:03;;;;;;;0.83;0.80;;;;;;;;;;5061504;28;20204;-71
2021/05/25 00:26:28;;;;;;;1.33;0.83;;;;;;;;;;5065960;28;20180;-71
2021/05/25 00:28:53;;;;;;;6.40;2.43;;;;;;;;;;5056006;28;20177;-70
2021/05/25 00:31:18;;;;;;;2.17;0.87;;;;;;;;;;5060836;28;20220;-71
2021/05/25 00:33:44;;;;;;;4.30;0.90;;;;;;;;;;5061041;28;20558;-71
2021/05/25 00:36:09;;;;;;;1.93;0.90;;;;;;;;;;5056824;28;20185;-71
2021/05/25 00:38:35;;;;;;;1.13;1.00;;;;;;;;;;5061639;28;20181;-71
2021/05/25 00:41:00;;;;;;;1.40;1.03;;;;;;;;;;5058980;28;20771;-71
2021/05/25 00:43:28;;;;;;;3.10;1.00;;;;;;;;;;5058364;28;20200;-70
2021/05/25 00:45:53;;;;;;;2.73;1.10;;;;;;;;;;5059951;28;20205;-70
2021/05/25 00:48:18;;;;;;;1.80;1.70;;;;;;;;;;5054609;28;20239;-70
2021/05/25 00:50:43;;;;;;;3.53;1.70;;;;;;;;;;5062674;28;20203;-70
2021/05/25 00:53:09;;;;;;;4.63;2.07;;;;;;;;;;5061533;28;20207;-70
2021/05/25 00:55:35;;;;;;;1.50;1.20;;;;;;;;;;5058474;28;20173;-70
2021/05/25 00:58:03;;;;;;;2.50;1.30;;;;;;;;;;5056616;28;20635;-70
2021/05/25 01:00:39;;;;;;;3.10;1.43;;;;;;;;;;5062225;28;20180;-71
2021/05/25 01:03:05;;;;;;;2.73;1.37;;;;;;;;;;5061409;28;20203;-70
2021/05/25 01:05:30;;;;;;;3.03;1.67;;;;;;;;;;5063426;28;20255;-70
2021/05/25 01:07:55;;;;;;;2.27;1.80;;;;;;;;;;5062229;28;20176;-70
2021/05/25 01:10:33;;;;;;;3.33;1.83;;;;;;;;;;5058525;28;20173;-70
2021/05/25 01:13:02;;;;;;;3.10;1.73;;;;;;;;;;5057120;28;20211;-71
2021/05/25 01:15:28;;;;;;;1.93;1.57;;;;;;;;;;5056277;28;20165;-70
2021/05/25 01:17:54;;;;;;;2.37;1.53;;;;;;;;;;5058905;28;20283;-71
2021/05/25 01:20:20;;;;;;;2.47;2.00;;;;;;;;;;5062381;28;20169;-70
2021/05/25 01:22:46;;;;;;;2.93;1.73;;;;;;;;;;5059295;28;20237;-71
2021/05/25 01:25:12;;;;;;;2.83;1.70;;;;;;;;;;5057031;28;20209;-71
2021/05/25 01:27:37;;;;;;;6.70;1.90;;;;;;;;;;5058320;28;20174;-72
2021/05/25 01:30:04;;;;;;;2.60;2.40;;;;;;;;;;5061334;28;20184;-70
2021/05/25 01:32:29;;;;;;;5.77;2.50;;;;;;;;;;5053464;28;20304;-69
2021/05/25 01:34:54;;;;;;;2.90;2.60;;;;;;;;;;5059162;28;20251;-69
2021/05/25 01:37:21;;;;;;;5.00;3.20;;;;;;;;;;5060542;28;20666;-69
2021/05/25 01:39:52;;;;;;;5.27;3.87;;;;;;;;;;5059665;28;20698;-70
2021/05/25 01:42:17;;;;;;;4.50;3.27;;;;;;;;;;5052401;28;20209;-70
2021/05/25 01:44:42;;;;;;;4.97;3.30;;;;;;;;;;5055027;28;20676;-70
2021/05/25 01:47:07;;;;;;;5.47;3.70;;;;;;;;;;5055541;28;20255;-71
2021/05/25 01:49:33;;;;;;;6.73;3.77;;;;;;;;;;5057313;28;20181;-71
2021/05/25 01:51:58;;;;;;;6.57;4.73;;;;;;;;;;5058133;28;20670;-70
2021/05/25 01:54:23;;;;;;;6.33;4.70;;;;;;;;;;5054446;28;20666;-70
2021/05/25 01:56:48;;;;;;;7.47;5.03;;;;;;;;;;5060120;28;20185;-71
2021/05/25 01:59:13;;;;;;;9.27;5.47;;;;;;;;;;5057323;28;20181;-70
2021/05/25 02:01:38;;;;;;;8.50;5.30;;;;;;;;;;5056020;28;20260;-70
2021/05/25 02:04:04;;;;;;;8.27;5.33;;;;;;;;;;5059252;28;20197;-70
2021/05/25 02:06:29;;;;;;;8.40;6.13;;;;;;;;;;5057801;28;20566;-70
2021/05/25 02:08:55;;;;;;;9.07;5.80;;;;;;;;;;5054684;28;20177;-70
2021/05/25 02:11:21;;;;;;;13.47;6.47;;;;;;;;;;5059273;28;20213;-69
2021/05/25 02:13:46;;;;;;;9.50;6.87;;;;;;;;;;5057616;28;20195;-69
2021/05/25 02:16:13;;;;;;;8.70;7.03;;;;;;;;;;5059715;28;20174;-70
2021/05/25 02:18:43;;;;;;;9.67;8.03;;;;;;;;;;5056159;28;20181;-70
2021/05/25 02:21:08;;;;;;;15.00;7.47;;;;;;;;;;5060095;28;20188;-70
2021/05/25 02:23:34;;;;;;;10.60;8.00;;;;;;;;;;5055370;28;20596;-70
2021/05/25 02:25:59;;;;;;;9.47;6.97;;;;;;;;;;5054542;28;20178;-70
2021/05/25 02:28:25;;;;;;;11.00;7.77;;;;;;;;;;5060501;28;20182;-70
2021/05/25 02:30:50;;;;;;;9.57;8.13;;;;;;;;;;5056098;28;20203;-70
2021/05/25 02:33:16;;;;;;;12.90;7.87;;;;;;;;;;5061821;28;20193;-70
2021/05/25 02:35:42;;;;;;;9.83;8.10;;;;;;;;;;5057797;28;20263;-70
2021/05/25 02:38:09;;;;;;;12.70;8.03;;;;;;;;;;5056188;28;20227;-70
2021/05/25 02:40:34;;;;;;;13.10;9.00;;;;;;;;;;5053490;28;20174;-70
2021/05/25 02:42:59;;;;;;;13.37;8.83;;;;;;;;;;5059609;28;20204;-70
2021/05/25 02:45:25;;;;;;;13.17;8.37;;;;;;;;;;5053822;28;20181;-70
2021/05/25 02:47:50;;;;;;;10.57;7.50;;;;;;;;;;5057884;28;20206;-70
2021/05/25 02:50:15;;;;;;;11.17;7.83;;;;;;;;;;5060449;28;20560;-70
2021/05/25 02:52:46;;;;;;;10.77;8.23;;;;;;;;;;5061964;28;20697;-70
2021/05/25 02:55:13;;;;;;;11.33;8.33;;;;;;;;;;5060364;28;20189;-70
2021/05/25 02:57:38;;;;;;;13.33;8.37;;;;;;;;;;5067332;28;20180;-70
2021/05/25 03:00:04;;;;;;;12.13;8.20;;;;;;;;;;5060047;28;20170;-70
2021/05/25 03:02:30;;;;;;;8.80;7.67;;;;;;;;;;5061608;28;20232;-70
2021/05/25 03:04:55;;;;;;;15.07;8.87;;;;;;;;;;5056646;28;20636;-70
2021/05/25 03:07:21;;;;;;;12.53;7.93;;;;;;;;;;5065182;28;20181;-70
2021/05/25 03:09:47;;;;;;;11.17;7.90;;;;;;;;;;5063529;28;20186;-69
2021/05/25 03:12:12;;;;;;;9.43;8.00;;;;;;;;;;5064901;28;20235;-70
2021/05/25 03:14:37;;;;;;;9.57;7.73;;;;;;;;;;5057542;28;20192;-70
2021/05/25 03:17:02;;;;;;;11.03;8.17;;;;;;;;;;5066543;28;20256;-70
2021/05/25 03:19:27;;;;;;;13.73;8.83;;;;;;;;;;5060394;28;20651;-70
2021/05/25 03:21:53;;;;;;;11.60;8.37;;;;;;;;;;5064462;28;20183;-70
2021/05/25 03:24:18;;;;;;;14.37;9.30;;;;;;;;;;5063214;28;20268;-70
2021/05/25 03:26:43;;;;;;;13.33;9.13;;;;;;;;;;5061834;28;20181;-70
2021/05/25 03:29:09;;;;;;;14.87;8.80;;;;;;;;;;5062382;28;20182;-70
2021/05/25 03:31:35;;;;;;;11.43;8.43;;;;;;;;;;5057709;28;20738;-70
2021/05/25 03:34:00;;;;;;;10.67;8.23;;;;;;;;;;5062370;28;20193;-71
2021/05/25 03:36:26;;;;;;;10.63;8.43;;;;;;;;;;5059774;28;20665;-70
2021/05/25 03:38:51;;;;;;;12.33;9.20;;;;;;;;;;5062848;28;20177;-70
2021/05/25 03:41:16;;;;;;;11.43;9.37;;;;;;;;;;5061335;28;20263;-70
2021/05/25 03:43:41;;;;;;;11.70;8.23;;;;;;;;;;5059927;28;20544;-70
2021/05/25 03:46:06;;;;;;;15.73;8.80;;;;;;;;;;5060244;28;20173;-70
2021/05/25 03:48:32;;;;;;;9.80;7.60;;;;;;;;;;5062474;28;20208;-70
2021/05/25 03:50:57;;;;;;;14.77;8.50;;;;;;;;;;5056285;28;20201;-70
2021/05/25 03:53:22;;;;;;;13.30;7.93;;;;;;;;;;5064187;28;20193;-70
2021/05/25 03:55:52;;;;;;;12.33;9.13;;;;;;;;;;5060152;28;20216;-70
2021/05/25 04:01:01;;;;;;;12.57;8.07;;;;;;;;;;5056199;28;20273;-70
2021/05/25 04:03:27;;;;;;;11.60;8.33;;;;;;;;;;5054687;28;20283;-70
2021/05/25 04:05:52;;;;;;;10.40;8.40;;;;;;;;;;5055495;28;20182;-70
2021/05/25 04:08:17;;;;;;;11.80;8.20;;;;;;;;;;5063077;28;20569;-70
2021/05/25 04:10:43;;;;;;;13.77;9.10;;;;;;;;;;5054437;28;20205;-70
2021/05/25 04:13:08;;;;;;;10.77;8.20;;;;;;;;;;5061514;28;20635;-71
2021/05/25 04:15:34;;;;;;;10.63;8.60;;;;;;;;;;5063346;28;20181;-70
2021/05/25 04:18:00;;;;;;;13.67;9.10;;;;;;;;;;5067118;28;20248;-70
2021/05/25 04:20:25;;;;;;;12.83;8.40;;;;;;;;;;5064537;28;20196;-70
2021/05/25 04:22:50;;;;;;;10.67;8.30;;;;;;;;;;5054000;28;20281;-70
2021/05/25 04:25:15;;;;;;;10.93;9.03;;;;;;;;;;5059901;28;20494;-70
2021/05/25 04:27:41;;;;;;;9.47;8.07;;;;;;;;;;5053182;28;20181;-70
2021/05/25 04:30:07;;;;;;;10.73;8.27;;;;;;;;;;5060161;28;20597;-70
2021/05/25 04:32:32;;;;;;;12.87;9.43;;;;;;;;;;5059526;28;20251;-70
2021/05/25 04:34:57;;;;;;;10.70;8.80;;;;;;;;;;5066733;28;20650;-70
2021/05/25 04:37:23;;;;;;;10.93;8.53;;;;;;;;;;5061204;28;20242;-70
2021/05/25 04:39:48;;;;;;;9.37;8.37;;;;;;;;;;5061680;28;20548;-70
2021/05/25 04:42:13;;;;;;;11.97;9.27;;;;;;;;;;5059019;28;20224;-70
2021/05/25 04:44:38;;;;;;;12.87;9.43;;;;;;;;;;5065447;28;20639;-70
2021/05/25 04:47:03;;;;;;;10.80;7.70;;;;;;;;;;5065694;28;20544;-70
2021/05/25 04:49:29;;;;;;;11.03;7.70;;;;;;;;;;5056238;28;20551;-70
2021/05/25 04:51:54;;;;;;;10.00;7.40;;;;;;;;;;5061662;28;20215;-70
2021/05/25 04:54:19;;;;;;;8.10;7.30;;;;;;;;;;5059659;28;20264;-70
2021/05/25 04:56:44;;;;;;;10.37;7.87;;;;;;;;;;5055680;28;20174;-70
2021/05/25 04:59:10;;;;;;;11.73;8.03;;;;;;;;;;5065813;28;20177;-71
2021/05/25 05:01:35;;;;;;;10.23;7.23;;;;;;;;;;5053065;28;20188;-70
2021/05/25 05:04:00;;;;;;;11.20;7.53;;;;;;;;;;5067992;28;20670;-71
2021/05/25 05:06:25;;;;;;;10.13;7.57;;;;;;;;;;5058605;28;20193;-70
2021/05/25 05:08:51;;;;;;;9.37;7.53;;;;;;;;;;5059347;28;20210;-70
2021/05/25 05:11:16;;;;;;;7.97;7.17;;;;;;;;;;5053955;28;20690;-70
2021/05/25 05:13:41;;;;;;;9.03;7.07;;;;;;;;;;5058520;28;20204;-71
2021/05/25 05:16:06;;;;;;;8.23;7.03;;;;;;;;;;5054469;28;20201;-70
2021/05/25 05:18:32;;;;;;;13.63;8.47;;;;;;;;;;5062459;28;20272;-71
2021/05/25 05:20:57;;;;;;;9.23;6.87;;;;;;;;;;5067734;28;20173;-70
2021/05/25 05:23:22;;;;;;;9.53;6.40;;;;;;;;;;5062119;28;20287;-70
2021/05/25 05:25:48;;;;;;;7.03;6.10;;;;;;;;;;5056966;28;20188;-70
2021/05/25 05:28:13;;;;;;;8.93;6.73;;;;;;;;;;5060262;28;20173;-70
2021/05/25 05:30:38;;;;;;;9.03;7.13;;;;;;;;;;5064724;28;20662;-70
2021/05/25 05:33:06;;;;;;;7.10;6.40;;;;;;;;;;5062388;28;20189;-70
2021/05/25 05:35:31;;;;;;;7.40;5.93;;;;;;;;;;5064245;28;20170;-71
2021/05/25 05:37:56;;;;;;;8.47;6.47;;;;;;;;;;5059652;28;20187;-70
2021/05/25 05:40:21;;;;;;;10.43;6.93;;;;;;;;;;5055556;28;20185;-71
2021/05/25 05:42:47;;;;;;;8.63;6.93;;;;;;;;;;5057438;28;20196;-70
2021/05/25 05:45:12;;;;;;;7.93;6.83;;;;;;;;;;5056671;28;20182;-70
2021/05/25 05:47:37;;;;;;;9.90;6.70;;;;;;;;;;5055159;28;20207;-70
2021/05/25 05:50:10;;;;;;;7.73;5.97;;;;;;;;;;5054831;28;20189;-70
2021/05/25 05:52:35;;;;;;;7.87;6.20;;;;;;;;;;5054722;28;20213;-71
2021/05/25 05:55:00;;;;;;;6.53;5.70;;;;;;;;;;5065267;28;20173;-71
2021/05/25 05:57:25;;;;;;;7.77;6.97;;;;;;;;;;5059157;28;20235;-70
2021/05/25 05:59:51;;;;;;;9.30;7.13;;;;;;;;;;5060844;28;20184;-72
2021/05/25 06:02:16;;;;;;;7.10;5.70;;;;;;;;;;5056978;28;20199;-71
2021/05/25 06:04:41;;;;;;;6.60;5.57;;;;;;;;;;5063666;28;20184;-71
2021/05/25 06:07:06;;;;;;;7.57;6.33;;;;;;;;;;5054956;28;20192;-71
2021/05/25 06:09:32;;;;;;;8.27;7.20;;;;;;;;;;5051022;28;20728;-71
2021/05/25 06:11:57;;;;;;;7.33;6.73;;;;;;;;;;5041447;28;20746;-71
2021/05/25 06:14:24;;;;;;;8.07;7.27;;;;;;;;;;5055714;28;20701;-70
2021/05/25 06:16:50;;;;;;;8.90;6.87;;;;;;;;;;5059024;28;20214;-71
2021/05/25 06:19:15;;;;;;;6.93;6.10;;;;;;;;;;5055539;28;20178;-71
2021/05/25 06:21:40;;;;;;;8.27;6.40;;;;;;;;;;5057758;28;20183;-70
2021/05/25 06:24:06;;;;;;;8.90;6.50;;;;;;;;;;5054177;28;20201;-71
2021/05/25 06:26:31;;;;;;;7.50;6.23;;;;;;;;;;5059857;28;20177;-70
2021/05/25 06:28:56;;;;;;;6.30;5.67;;;;;;;;;;5055984;28;20180;-71
2021/05/25 06:31:21;;;;;;;7.63;5.30;;;;;;;;;;5060169;28;20205;-71
2021/05/25 06:33:46;;;;;;;4.90;4.50;;;;;;;;;;5057634;28;20193;-71
2021/05/25 06:36:11;;;;;;;5.50;4.90;;;;;;;;;;5060016;28;20639;-71
2021/05/25 06:38:37;;;;;;;5.10;4.50;;;;;;;;;;5062386;28;20216;-72
2021/05/25 06:41:02;;;;;;;4.93;4.47;;;;;;;;;;5066300;28;20587;-70
2021/05/25 06:43:27;;;;;;;6.30;5.20;;;;;;;;;;5057487;28;20196;-71
2021/05/25 06:45:53;;;;;;;13.03;5.43;;;;;;;;;;5063295;28;20181;-71
2021/05/25 06:48:18;;;;;;;6.50;3.30;;;;;;;;;;5064349;28;20219;-72
2021/05/25 06:50:43;;;;;;;2.97;2.77;;;;;;;;;;5059914;28;20174;-71
2021/05/25 06:53:10;;;;;;;4.57;3.20;;;;;;;;;;5061065;28;20200;-70
2021/05/25 06:55:35;;;;;;;3.07;2.77;;;;;;;;;;5059966;28;20181;-70
2021/05/25 06:58:00;;;;;;;4.97;3.40;;;;;;;;;;5063246;28;20251;-72
2021/05/25 07:00:25;;;;;;;6.00;3.03;;;;;;;;;;5058116;28;20185;-70
2021/05/25 07:02:51;;;;;;;4.67;3.00;;;;;;;;;;5054527;28;20215;-70
2021/05/25 07:05:16;;;;;;;4.93;3.23;;;;;;;;;;5063350;28;20166;-70
2021/05/25 07:07:41;;;;;;;3.53;3.27;;;;;;;;;;5057996;28;20205;-71
2021/05/25 07:10:07;;;;;;;3.20;2.90;;;;;;;;;;5060439;28;20182;-70
2021/05/25 07:12:32;;;;;;;8.50;4.27;;;;;;;;;;5067614;28;20266;-71
2021/05/25 07:14:57;;;;;;;4.00;3.63;;;;;;;;;;5064541;28;20204;-70
2021/05/25 07:17:23;;;;;;;3.23;2.87;;;;;;;;;;5062876;28;20176;-70
2021/05/25 07:19:48;;;;;;;5.20;3.70;;;;;;;;;;5068134;28;20173;-72
2021/05/25 07:22:13;;;;;;;6.70;3.50;;;;;;;;;;5063634;28;20254;-72
2021/05/25 07:24:39;;;;;;;8.33;3.50;;;;;;;;;;5064377;28;20180;-70
2021/05/25 07:27:05;;;;;;;7.07;3.47;;;;;;;;;;5061900;28;20190;-70
2021/05/25 07:29:30;;;;;;;5.22;3.05;;;;;;;;;;5067319;28;20605;-70
2021/05/25 07:31:55;;;;;;;3.65;3.00;;;;;;;;;;5063864;28;20283;-72
2021/05/25 07:34:20;;;;;;;4.50;3.15;;;;;;;;;;5061681;28;20223;-71
2021/05/25 07:36:47;;;;;;;3.40;2.92;;;;;;;;;;5060664;28;20721;-71
2021/05/25 07:39:12;;;;;;;4.95;3.30;;;;;;;;;;5063906;28;20646;-71
2021/05/25 07:41:38;;;;;;;7.07;3.13;;;;;;;;;;5062090;28;20176;-71
2021/05/25 07:44:03;;;;;;;6.70;4.07;;;;;;;;;;5060493;28;20687;-72
2021/05/25 07:46:30;;;;;;;5.97;3.00;;;;;;;;;;5062063;28;20283;-72
2021/05/25 07:48:55;;;;;;;4.10;2.65;;;;;;;;;;5061025;28;20261;-72
2021/05/25 07:51:20;;;;;;;3.55;2.47;;;;;;;;;;5054078;28;20291;-73
2021/05/25 07:53:46;;;;;;;2.78;1.85;;;;;;;;;;5055447;28;20215;-72
2021/05/25 07:56:11;;;;;;;4.15;1.70;;;;;;;;;;5061720;28;20249;-73
2021/05/25 07:58:37;;;;;;;5.68;2.20;;;;;;;;;;5055227;28;20311;-73
2021/05/25 08:01:02;;;;;;;4.25;2.00;;;;;;;;;;5056443;28;20639;-73
2021/05/25 08:03:28;;;;;;;5.27;2.13;;;;;;;;;;5056938;28;20209;-73
2021/05/25 08:05:54;;;;;;;7.10;2.23;;;;;;;;;;5058647;28;20181;-73
2021/05/25 08:08:19;;;;;;;4.43;2.30;;;;;;;;;;5055997;28;20181;-72
2021/05/25 08:10:44;;;;;;;4.30;2.53;;;;;;;;;;5061986;28;20537;-73
2021/05/25 08:13:09;;;;;;;7.50;2.80;;;;;;;;;;5063232;28;20545;-72
2021/05/25 08:15:36;;;;;;;8.97;3.10;;;;;;;;;;5062137;28;20201;-72
2021/05/25 08:18:07;;;;;;;4.70;2.93;;;;;;;;;;5056687;28;20185;-72
2021/05/25 08:20:34;;;;;;;9.07;4.93;;;;;;;;;;5061600;28;20260;-72
2021/05/25 08:23:00;;;;;;;6.87;3.80;;;;;;;;;;5060152;28;20197;-72
2021/05/25 08:25:27;;;;;;;5.90;3.67;;;;;;;;;;5056783;28;20230;-72
2021/05/25 08:27:53;;;;;;;8.43;3.83;;;;;;;;;;5062694;28;20173;-73
2021/05/25 08:30:20;;;;;;;5.40;3.23;;;;;;;;;;5063095;28;20268;-72
2021/05/25 08:32:45;;;;;;;6.17;3.70;;;;;;;;;;5064612;28;20220;-72
2021/05/25 08:35:11;;;;;;;5.77;3.37;;;;;;;;;;5055961;28;20169;-73
2021/05/25 08:37:36;;;;;;;9.67;3.60;;;;;;;;;;5060088;28;20208;-71
2021/05/25 08:40:03;;;;;;;7.03;4.03;;;;;;;;;;5054197;28;20212;-73
2021/05/25 08:42:28;;;;;;;8.17;3.67;;;;;;;;;;5054756;28;20204;-72
2021/05/25 08:44:54;;;;;;;7.37;4.70;;;;;;;;;;5054258;28;20555;-72
2021/05/25 08:47:19;;;;;;;9.40;4.63;;;;;;;;;;5055662;28;20177;-71
2021/05/25 08:49:45;;;;;;;11.03;5.50;;;;;;;;;;5059715;28;22151;-72
2021/05/25 08:52:10;;;;;;;6.03;3.60;;;;;;;;;;5061099;28;20234;-72
2021/05/25 08:54:39;;;;;;;9.57;3.60;;;;;;;;;;5059144;28;20581;-72
2021/05/25 08:57:04;;;;;;;7.57;3.57;;;;;;;;;;5059651;28;20291;-72
2021/05/25 08:59:29;;;;;;;5.00;3.60;;;;;;;;;;5063025;28;20262;-71
2021/05/25 09:01:54;;;;;;;7.57;3.40;;;;;;;;;;5055327;28;20589;-71
2021/05/25 09:04:20;;;;;;;7.93;3.85;;;;;;;;;;5055856;28;20181;-70
2021/05/25 09:06:46;;;;;;;6.03;4.00;;;;;;;;;;5054294;28;20674;-72
2021/05/25 09:09:15;;;;;;;5.93;3.03;;;;;;;;;;5063641;28;20185;-72
2021/05/25 09:12:12;;;;;;;7.13;3.40;;;;;;;;;;5053645;28;20743;-72
2021/05/25 09:14:47;;;;;;;10.80;3.55;;;;;;;;;;5054276;28;20336;-72
2021/05/25 09:17:21;;;;;;;8.43;3.25;;;;;;;;;;5058185;28;20558;-72
2021/05/25 09:19:48;;;;;;;8.55;3.22;;;;;;;;;;5050330;28;20181;-72
2021/05/25 09:22:33;;;;;;;8.02;3.65;;;;;;;;;;5055706;28;20219;-71
2021/05/25 09:25:05;;;;;;;4.93;2.85;;;;;;;;;;5052720;28;20177;-72
2021/05/25 09:27:33;;;;;;;7.60;3.30;;;;;;;;;;5058522;28;20177;-72
2021/05/25 09:30:17;;;;;;;7.20;3.80;;;;;;;;;;5055291;28;20509;-72
2021/05/25 09:32:47;;;;;;;9.73;3.92;;;;;;;;;;5052507;28;20227;-72
2021/05/25 09:35:13;;;;;;;6.25;3.05;;;;;;;;;;5055422;28;20174;-71
2021/05/25 09:37:42;;;;;;;7.05;3.50;;;;;;;;;;5055699;28;20280;-73
2021/05/25 09:40:08;;;;;;;7.70;3.80;;;;;;;;;;5056358;28;20267;-72
2021/05/25 09:42:33;;;;;;;6.10;3.27;;;;;;;;;;5062039;28;20281;-70
2021/05/25 09:45:06;;;;;;;9.07;3.30;;;;;;;;;;5054008;28;20183;-71
2021/05/25 09:47:37;;;;;;;5.13;3.03;;;;;;;;;;5056520;28;20725;-71
2021/05/25 09:50:03;;;;;;;6.00;2.50;;;;;;;;;;5054799;28;20276;-71
2021/05/25 09:52:28;;;;;;;8.80;2.63;;;;;;;;;;5059291;28;20327;-72
2021/05/25 09:55:10;;;;;;;8.10;3.03;;;;;;;;;;5056344;28;20272;-71
2021/05/25 09:57:50;;;;;;;9.13;2.80;;;;;;;;;;5059128;28;20210;-71
2021/05/25 10:00:24;;;;;;;4.43;2.58;;;;;;;;;;5051120;28;20169;-71
2021/05/25 10:03:08;;;;;;;4.43;1.90;;;;;;;;;;5053876;28;20735;-72
2021/05/25 10:05:34;;;;;;;7.23;2.37;;;;;;;;;;5047861;28;20181;-71
2021/05/25 10:08:00;;;;;;;4.35;1.60;;;;;;;;;;5060062;28;20288;-71
2021/05/25 10:10:25;;;;;;;4.88;1.90;;;;;;;;;;5053149;28;20184;-71
2021/05/25 10:12:51;;;;;;;2.97;1.50;;;;;;;;;;5064991;28;20302;-70
2021/05/25 10:15:17;;;;;;;3.22;1.58;;;;;;;;;;5054968;28;20731;-71
2021/05/25 10:20:27;;;;;;;4.32;2.05;;;;;;;;;;5058060;28;20232;-70
2021/05/25 10:22:52;;;;;;;5.35;1.85;;;;;;;;;;5059141;28;20205;-69
2021/05/25 10:25:18;;;;;;;3.33;1.75;;;;;;;;;;5060924;28;20653;-69
2021/05/25 10:27:45;;;;;;;5.97;2.25;;;;;;;;;;5059960;28;20633;-69
2021/05/25 10:30:25;;;;;;;4.22;1.90;;;;;;;;;;5060885;28;20184;-70
2021/05/25 10:32:51;;;;;;;4.78;1.85;;;;;;;;;;5056044;28;20211;-71
2021/05/25 10:35:20;;;;;;;4.82;1.55;;;;;;;;;;5053317;28;20826;-70
2021/05/25 10:38:11;;;;;;;4.70;2.20;;;;;;;;;;5063081;28;20231;-70
2021/05/25 10:40:37;;;;;;;2.53;1.33;;;;;;;;;;5055757;28;20209;-71
2021/05/25 10:43:21;;;;;;;2.95;1.50;;;;;;;;;;5054069;28;20638;-70
2021/05/25 10:45:46;;;;;;;5.45;1.77;;;;;;;;;;5058465;28;20344;-71
2021/05/25 10:48:11;;;;;;;3.58;1.63;;;;;;;;;;5051001;28;20237;-71
2021/05/25 10:50:47;;;;;;;5.47;1.98;;;;;;;;;;5051960;28;20295;-71
2021/05/25 10:53:12;;;;;;;8.05;2.95;;;;;;;;;;5051504;28;20704;-71
2021/05/25 10:55:39;;;;;;;5.03;1.52;;;;;;;;;;5056256;28;20177;-70
2021/05/25 10:58:16;;;;;;;5.22;1.63;;;;;;;;;;5048215;28;20818;-71
2021/05/25 11:00:42;;;;;;;3.85;1.52;;;;;;;;;;5055449;28;20656;-71
2021/05/25 11:03:13;;;;;;;3.95;2.00;;;;;;;;;;5053288;28;20247;-70
2021/05/25 11:05:43;;;;;;;4.03;1.65;;;;;;;;;;5053220;28;20881;-71
2021/05/25 11:08:09;;;;;;;6.90;1.60;;;;;;;;;;5055415;28;20186;-70
2021/05/25 11:10:38;;;;;;;4.22;1.65;;;;;;;;;;5052647;28;20173;-71
2021/05/25 11:13:19;;;;;;;6.95;2.00;;;;;;;;;;5056403;28;20683;-71
2021/05/25 11:16:06;;;;;;;3.25;1.02;;;;;;;;;;5054181;28;20564;-71
2021/05/25 11:18:34;;;;;;;2.35;0.80;;;;;;;;;;5057342;28;20340;-70
2021/05/25 11:23:44;;;;;;;3.55;0.95;;;;;;;;;;5057780;28;20276;-72
2021/05/25 11:26:09;;;;;;;1.48;0.80;;;;;;;;;;5059985;28;20189;-70
2021/05/25 11:28:53;;;;;;;2.30;0.77;;;;;;;;;;5060901;28;20700;-70
2021/05/25 11:31:34;;;;;;;2.75;0.90;;;;;;;;;;5059740;28;20232;-71
2021/05/25 11:34:03;;;;;;;3.42;0.80;;;;;;;;;;5059676;28;20193;-72
2021/05/25 11:36:29;;;;;;;0.90;0.80;;;;;;;;;;5063717;28;21247;-72
2021/05/25 11:38:54;;;;;;;2.97;0.90;;;;;;;;;;5059492;28;20185;-71
2021/05/25 11:41:19;;;;;;;5.00;0.95;;;;;;;;;;5059053;28;20176;-71
2021/05/25 11:43:44;;;;;;;1.33;0.80;;;;;;;;;;5060288;28;20251;-71
2021/05/25 11:46:10;;;;;;;2.67;0.90;;;;;;;;;;5059857;28;20181;-71
2021/05/25 11:48:35;;;;;;;4.05;1.10;;;;;;;;;;5067691;28;20675;-72
2021/05/25 11:51:07;;;;;;;3.13;0.90;;;;;;;;;;5055322;28;20182;-71
2021/05/25 11:53:32;;;;;;;7.75;1.75;;;;;;;;;;5062419;28;20267;-72
2021/05/25 11:55:58;;;;;;;2.10;1.00;;;;;;;;;;5053693;28;20339;-72
2021/05/25 11:58:23;;;;;;;3.83;1.08;;;;;;;;;;5059842;28;20984;-71
2021/05/25 12:00:49;;;;;;;2.53;1.10;;;;;;;;;;5062970;28;20170;-71
2021/05/25 12:03:14;;;;;;;2.00;0.98;;;;;;;;;;5060527;28;20200;-71
2021/05/25 12:05:41;;;;;;;1.48;0.88;;;;;;;;;;5061273;28;20677;-71
2021/05/25 12:08:09;;;;;;;1.48;0.88;;;;;;;;;;5060454;28;20222;-71
2021/05/25 12:10:35;;;;;;;2.15;0.68;;;;;;;;;;5068506;28;20543;-71
2021/05/25 12:13:06;;;;;;;2.83;0.85;;;;;;;;;;5058660;28;20213;-71
2021/05/25 12:15:31;;;;;;;1.40;0.65;;;;;;;;;;5057902;28;20660;-70
2021/05/25 12:17:57;;;;;;;2.08;0.60;;;;;;;;;;5056225;28;20260;-71
2021/05/25 12:20:43;;;;;;;3.00;0.90;;;;;;;;;;5056648;28;20173;-71
2021/05/25 12:23:12;;;;;;;2.13;0.63;;;;;;;;;;5068323;28;20203;-71
2021/05/25 12:25:38;;;;;;;0.90;0.55;;;;;;;;;;5064912;28;20165;-71
2021/05/25 12:28:03;;;;;;;1.00;0.60;;;;;;;;;;5064150;28;20648;-71
2021/05/25 12:30:28;;;;;;;0.93;0.73;;;;;;;;;;5064633;28;20162;-71
2021/05/25 12:32:54;;;;;;;2.50;0.60;;;;;;;;;;5059729;28;20207;-71
2021/05/25 12:35:20;;;;;;;1.87;0.90;;;;;;;;;;5058869;28;21596;-70
2021/05/25 12:37:59;;;;;;;3.20;0.90;;;;;;;;;;5062202;28;20310;-71
2021/05/25 12:40:24;;;;;;;1.83;1.00;;;;;;;;;;5057351;28;20606;-71
2021/05/25 12:42:49;;;;;;;2.77;1.00;;;;;;;;;;5057419;28;20280;-70
2021/05/25 12:45:14;;;;;;;2.70;1.20;;;;;;;;;;5062564;28;20170;-71
2021/05/25 12:47:53;;;;;;;4.00;1.50;;;;;;;;;;5059622;28;20173;-71
2021/05/25 12:50:28;;;;;;;2.00;1.10;;;;;;;;;;5063671;28;20266;-71
2021/05/25 12:53:00;;;;;;;2.60;1.43;;;;;;;;;;5052265;28;20238;-72
2021/05/25 12:55:25;;;;;;;2.17;1.10;;;;;;;;;;5052280;28;20177;-71
2021/05/25 12:57:51;;;;;;;3.07;1.23;;;;;;;;;;5060833;28;20181;-71
2021/05/25 13:00:27;;;;;;;6.47;1.58;;;;;;;;;;5054470;28;20185;-72
2021/05/25 13:02:52;;;;;;;1.58;1.00;;;;;;;;;;5057745;28;20685;-71
2021/05/25 13:05:27;;;;;;;1.70;0.98;;;;;;;;;;5059081;28;20408;-71
2021/05/25 13:08:07;;;;;;;3.75;1.45;;;;;;;;;;5057776;28;20181;-71
2021/05/25 13:10:40;;;;;;;2.83;1.63;;;;;;;;;;5053193;28;20179;-70
2021/05/25 13:13:09;;;;;;;3.67;1.33;;;;;;;;;;5055736;28;20247;-70
2021/05/25 13:15:38;;;;;;;3.10;1.10;;;;;;;;;;5056349;28;20205;-71
2021/05/25 13:18:04;;;;;;;5.53;1.48;;;;;;;;;;5058524;28;20255;-71
2021/05/25 13:20:29;;;;;;;3.13;1.40;;;;;;;;;;5061222;28;20177;-70
2021/05/25 13:22:54;;;;;;;7.22;1.35;;;;;;;;;;5057833;28;20188;-70
2021/05/25 13:25:28;;;;;;;2.75;1.30;;;;;;;;;;5059249;28;20555;-70
2021/05/25 13:27:53;;;;;;;3.97;1.48;;;;;;;;;;5060302;28;20259;-70
2021/05/25 13:30:30;;;;;;;1.60;1.00;;;;;;;;;;5062982;28;20316;-70
2021/05/25 13:32:55;;;;;;;3.45;1.30;;;;;;;;;;5056781;28;20204;-71
2021/05/25 13:35:20;;;;;;;4.07;1.20;;;;;;;;;;5054053;28;20190;-70
2021/05/25 13:37:46;;;;;;;3.13;1.08;;;;;;;;;;5058931;28;20268;-70
2021/05/25 13:40:11;;;;;;;6.85;1.88;;;;;;;;;;5061054;28;20617;-70
2021/05/25 13:42:36;;;;;;;3.55;1.40;;;;;;;;;;5055508;28;20205;-70
2021/05/25 13:45:02;;;;;;;4.50;1.60;;;;;;;;;;5058715;28;20212;-70
2021/05/25 13:47:29;;;;;;;6.78;1.40;;;;;;;;;;5062219;28;20414;-71
2021/05/25 13:49:54;;;;;;;5.18;1.38;;;;;;;;;;5064234;28;20192;-71
2021/05/25 13:52:20;;;;;;;4.20;1.17;;;;;;;;;;5057107;28;20212;-71
2021/05/25 13:54:45;;;;;;;2.58;1.40;;;;;;;;;;5057656;28;20827;-72
2021/05/25 13:57:20;;;;;;;4.55;1.30;;;;;;;;;;5053336;28;20200;-71
2021/05/25 14:02:12;;;;;;;4.07;1.58;;;;;;;;;;5058180;28;20612;-70
2021/05/25 14:04:37;;;;;;;3.13;1.65;;;;;;;;;;5054378;28;20264;-70
2021/05/25 14:07:08;;;;;;;2.72;1.00;;;;;;;;;;5057876;28;20197;-70
2021/05/25 14:09:33;;;;;;;1.23;1.02;;;;;;;;;;5058140;28;20264;-71
2021/05/25 14:11:58;;;;;;;3.00;1.10;;;;;;;;;;5050468;28;20285;-70
2021/05/25 14:14:24;;;;;;;1.37;1.00;;;;;;;;;;5054290;28;20177;-71
2021/05/25 14:16:49;;;;;;;1.75;1.20;;;;;;;;;;5054453;28;20255;-70
2021/05/25 14:19:14;;;;;;;1.83;1.30;;;;;;;;;;5056623;28;20546;-71
2021/05/25 14:21:39;;;;;;;2.05;1.05;;;;;;;;;;5051239;28;20182;-72
2021/05/25 14:24:05;;;;;;;3.65;1.52;;;;;;;;;;5057117;28;20323;-70
2021/05/25 14:26:30;;;;;;;3.22;1.75;;;;;;;;;;5056490;28;20180;-71
2021/05/25 14:28:55;;;;;;;4.32;1.42;;;;;;;;;;5052397;28;20255;-70
2021/05/25 14:31:20;;;;;;;2.67;1.10;;;;;;;;;;5056816;28;20260;-70
2021/05/25 14:33:46;;;;;;;2.92;1.67;;;;;;;;;;5058342;28;20212;-72
2021/05/25 14:36:11;;;;;;;3.90;2.03;;;;;;;;;;5056773;28;20691;-70
2021/05/25 14:38:36;;;;;;;5.65;1.63;;;;;;;;;;5058408;28;20197;-71
2021/05/25 14:41:02;;;;;;;5.75;2.08;;;;;;;;;;5051679;28;20251;-70
2021/05/25 14:43:27;;;;;;;8.75;2.95;;;;;;;;;;5055181;28;20194;-70
2021/05/25 14:45:52;;;;;;;4.75;1.92;;;;;;;;;;5060782;28;20185;-72
2021/05/25 14:48:17;;;;;;;3.40;1.63;;;;;;;;;;5060808;28;20202;-71
2021/05/25 14:50:43;;;;;;;6.03;1.80;;;;;;;;;;5056260;28;20520;-70